createdAt,value
2019-05-07T00:01:02.950Z,3.71
2019-05-07T00:03:32.833Z,3.57
2019-05-07T00:06:02.798Z,3.53
2019-05-07T00:08:32.244Z,3.46
2019-05-07T00:11:02.276Z,3.46
2019-05-07T00:13:33.310Z,3.44
2019-05-07T00:16:02.463Z,3.34
2019-05-07T00:18:32.157Z,3.41
2019-05-07T00:21:03.355Z,3.48
2019-05-07T00:23:32.495Z,3.33
2019-05-07T00:26:02.327Z,3.45
2019-05-07T00:28:32.496Z,3.40
2019-05-07T00:31:02.881Z,3.40
2019-05-07T00:33:32.506Z,3.45
2019-05-07T00:36:02.764Z,3.57
2019-05-07T00:38:32.966Z,3.57
2019-05-07T00:41:03.195Z,3.60
2019-05-07T00:43:33.168Z,3.61
2019-05-07T00:46:03.341Z,3.66
2019-05-07T00:48:32.880Z,3.61
2019-05-07T00:51:19.686Z,3.71
2019-05-07T00:53:48.380Z,3.64
2019-05-07T00:56:18.559Z,3.56
2019-05-07T00:58:47.260Z,3.64
2019-05-07T01:01:15.898Z,3.64
2019-05-07T01:03:44.503Z,3.63
2019-05-07T01:06:13.179Z,3.66
2019-05-07T01:08:43.052Z,3.69
2019-05-07T01:11:13.142Z,3.56
2019-05-07T01:13:43.127Z,3.51
2019-05-07T01:16:12.998Z,3.49
2019-05-07T01:18:42.206Z,3.50
2019-05-07T01:21:13.097Z,3.47
2019-05-07T01:23:42.807Z,3.47
2019-05-07T01:26:12.423Z,3.47
2019-05-07T01:29:02.474Z,3.45
2019-05-07T01:31:33.264Z,3.45
2019-05-07T01:34:18.829Z,3.50
2019-05-07T01:36:47.517Z,3.42
2019-05-07T01:39:16.131Z,3.34
2019-05-07T01:41:44.810Z,3.40
2019-05-07T01:44:13.435Z,3.45
2019-05-07T01:46:42.298Z,3.45
2019-05-07T01:49:12.531Z,3.36
2019-05-07T01:51:42.362Z,3.29
2019-05-07T01:54:12.954Z,3.24
2019-05-07T01:56:42.750Z,3.21
2019-05-07T01:59:12.120Z,3.20
2019-05-07T02:01:42.936Z,3.25
2019-05-07T02:04:12.886Z,3.24
2019-05-07T02:06:43.095Z,3.23
2019-05-07T02:09:31.378Z,3.23
2019-05-07T02:12:02.384Z,3.26
2019-05-07T02:14:33.066Z,3.27
2019-05-07T02:17:03.001Z,3.27
2019-05-07T02:19:32.946Z,3.27
2019-05-07T02:22:02.830Z,3.32
2019-05-07T02:24:33.926Z,3.32
2019-05-07T02:27:02.976Z,3.30
2019-05-07T02:29:32.506Z,3.27
2019-05-07T02:32:04.704Z,3.27
2019-05-07T02:34:34.154Z,3.26
2019-05-07T02:37:04.025Z,3.27
2019-05-07T02:39:34.475Z,3.29
2019-05-07T02:42:03.860Z,3.25
2019-05-07T02:44:34.156Z,3.29
2019-05-07T02:47:12.737Z,3.28
2019-05-07T02:49:47.878Z,3.25
2019-05-07T02:52:23.775Z,3.27
2019-05-07T02:55:13.438Z,3.30
2019-05-07T02:57:43.432Z,3.35
2019-05-07T03:00:14.688Z,3.29
2019-05-07T03:02:43.851Z,3.29
2019-05-07T03:05:13.673Z,3.30
2019-05-07T03:07:42.990Z,3.24
2019-05-07T03:10:13.887Z,3.24
2019-05-07T03:12:42.971Z,3.25
2019-05-07T03:15:13.240Z,3.23
2019-05-07T03:17:43.039Z,3.22
2019-05-07T03:20:15.702Z,3.19
2019-05-07T03:22:44.393Z,3.17
2019-05-07T03:25:26.781Z,3.12
2019-05-07T03:27:55.391Z,3.02
2019-05-07T03:30:36.019Z,2.94
2019-05-07T03:33:07.515Z,2.84
2019-05-07T03:35:38.404Z,2.74
2019-05-07T03:38:07.026Z,2.59
2019-05-07T03:40:36.917Z,2.59
2019-05-07T03:43:06.233Z,2.69
2019-05-07T03:45:43.505Z,2.71
2019-05-07T03:48:16.988Z,2.74
2019-05-07T03:50:47.185Z,2.78
2019-05-07T03:53:15.852Z,2.79
2019-05-07T03:55:44.934Z,2.82
2019-05-07T03:58:14.522Z,2.77
2019-05-07T04:00:45.961Z,2.80
2019-05-07T04:03:19.052Z,2.84
2019-05-07T04:05:45.191Z,2.86
2019-05-07T04:08:13.893Z,2.86
2019-05-07T04:10:44.190Z,2.83
2019-05-07T04:13:13.664Z,2.92
2019-05-07T04:15:43.853Z,2.95
2019-05-07T04:18:13.600Z,2.96
2019-05-07T04:20:43.656Z,2.89
2019-05-07T04:23:13.774Z,2.92
2019-05-07T04:25:53.053Z,3.00
2019-05-07T04:28:23.530Z,3.00
2019-05-07T04:30:53.451Z,3.04
2019-05-07T04:33:24.042Z,2.98
2019-05-07T04:35:54.498Z,2.97
2019-05-07T04:38:23.904Z,3.01
2019-05-07T04:40:53.755Z,3.19
2019-05-07T04:43:23.301Z,3.07
2019-05-07T04:45:54.042Z,3.07
2019-05-07T04:48:23.472Z,3.04
2019-05-07T04:50:54.425Z,3.05
2019-05-07T04:53:23.925Z,3.11
2019-05-07T04:55:53.738Z,3.15
2019-05-07T04:58:23.666Z,3.11
2019-05-07T05:00:53.906Z,3.20
2019-05-07T05:03:24.475Z,3.28
2019-05-07T05:05:53.634Z,3.38
2019-05-07T05:08:23.366Z,3.44
2019-05-07T05:10:53.738Z,3.52
2019-05-07T05:13:24.969Z,3.58
2019-05-07T05:15:53.662Z,3.72
2019-05-07T05:18:22.764Z,3.76
2019-05-07T05:21:08.291Z,3.85
2019-05-07T05:23:38.552Z,3.79
2019-05-07T05:26:07.235Z,3.85
2019-05-07T05:28:35.930Z,3.96
2019-05-07T05:31:06.247Z,4.04
2019-05-07T05:33:35.036Z,4.09
2019-05-07T05:36:03.723Z,4.13
2019-05-07T05:38:33.117Z,4.20
2019-05-07T05:41:02.732Z,4.31
2019-05-07T05:43:33.367Z,4.40
2019-05-07T05:46:04.068Z,4.46
2019-05-07T05:48:33.449Z,4.60
2019-05-07T05:51:22.604Z,4.72
2019-05-07T05:53:52.471Z,4.82
2019-05-07T05:56:25.978Z,4.96
2019-05-07T05:58:59.380Z,4.91
2019-05-07T06:01:45.780Z,4.84
2019-05-07T06:04:32.962Z,4.86
2019-05-07T06:07:10.771Z,4.99
2019-05-07T06:09:38.465Z,4.99
2019-05-07T06:12:12.613Z,5.05
2019-05-07T06:14:43.006Z,5.06
2019-05-07T06:17:19.069Z,5.14
2019-05-07T06:19:51.768Z,5.28
2019-05-07T06:22:24.534Z,5.33
2019-05-07T06:24:58.846Z,5.43
2019-05-07T06:27:27.636Z,5.52
2019-05-07T06:29:56.321Z,5.88
2019-05-07T06:32:25.012Z,6.11
2019-05-07T06:34:53.902Z,6.13
2019-05-07T06:37:22.919Z,6.21
2019-05-07T06:39:58.960Z,6.12
2019-05-07T06:42:29.212Z,6.07
2019-05-07T06:45:05.429Z,6.01
2019-05-07T06:47:34.031Z,5.93
2019-05-07T06:50:03.204Z,5.90
2019-05-07T06:52:32.058Z,5.93
2019-05-07T06:55:03.175Z,5.86
2019-05-07T06:57:33.033Z,6.24
2019-05-07T07:00:15.386Z,6.29
2019-05-07T07:02:45.565Z,6.38
2019-05-07T07:05:18.641Z,6.36
2019-05-07T07:07:48.818Z,6.25
2019-05-07T07:10:19.129Z,6.45
2019-05-07T07:12:47.922Z,6.77
2019-05-07T07:15:16.613Z,6.48
2019-05-07T07:17:45.411Z,6.49
2019-05-07T07:20:14.282Z,6.57
2019-05-07T07:22:42.975Z,6.68
2019-05-07T07:25:11.991Z,7.40
2019-05-07T07:27:42.924Z,7.87
2019-05-07T07:30:16.149Z,8.32
2019-05-07T07:32:49.327Z,9.00
2019-05-07T07:35:18.914Z,9.18
2019-05-07T07:37:47.581Z,8.81
2019-05-07T07:40:33.066Z,8.49
2019-05-07T07:43:04.865Z,8.44
2019-05-07T07:45:32.524Z,8.62
2019-05-07T07:48:02.238Z,8.52
2019-05-07T07:50:33.030Z,8.31
2019-05-07T07:53:02.568Z,8.31
2019-05-07T07:55:33.129Z,8.34
2019-05-07T07:58:03.494Z,8.25
2019-05-07T08:00:46.020Z,8.17
2019-05-07T08:03:15.101Z,7.91
2019-05-07T08:05:43.800Z,8.20
2019-05-07T08:08:12.834Z,8.29
2019-05-07T08:10:42.656Z,8.31
2019-05-07T08:13:12.273Z,8.36
2019-05-07T08:15:43.020Z,8.58
2019-05-07T08:18:12.051Z,8.63
2019-05-07T08:20:43.067Z,8.37
2019-05-07T08:23:12.171Z,8.53
2019-05-07T08:25:52.495Z,8.57
2019-05-07T08:28:23.274Z,8.44
2019-05-07T08:30:53.732Z,8.72
2019-05-07T08:33:23.990Z,8.75
2019-05-07T08:35:56.999Z,8.72
2019-05-07T08:38:25.624Z,8.83
2019-05-07T08:40:54.309Z,8.65
2019-05-07T08:43:22.980Z,8.78
2019-05-07T08:45:56.219Z,8.89
2019-05-07T08:48:26.455Z,9.05
2019-05-07T08:50:55.144Z,8.81
2019-05-07T08:53:23.815Z,8.75
2019-05-07T08:55:52.703Z,8.83
2019-05-07T08:58:22.375Z,8.92
2019-05-07T09:00:52.283Z,8.71
2019-05-07T09:03:39.027Z,8.57
2019-05-07T09:06:11.697Z,8.44
2019-05-07T09:08:38.050Z,8.54
2019-05-07T09:11:06.675Z,8.39
2019-05-07T09:13:35.355Z,8.39
2019-05-07T09:16:03.972Z,8.93
2019-05-07T09:18:32.663Z,8.90
2019-05-07T09:21:02.240Z,8.47
2019-05-07T09:23:31.882Z,8.85
2019-05-07T09:26:02.703Z,9.05
2019-05-07T09:28:32.800Z,9.36
2019-05-07T09:31:05.702Z,8.60
2019-05-07T09:33:35.948Z,9.14
2019-05-07T09:36:05.913Z,9.21
2019-05-07T09:38:34.555Z,8.88
2019-05-07T09:41:03.186Z,8.94
2019-05-07T09:43:32.472Z,8.86
2019-05-07T09:46:02.717Z,8.92
2019-05-07T09:48:33.599Z,9.20
2019-05-07T09:51:02.391Z,8.91
2019-05-07T09:53:32.119Z,9.13
2019-05-07T09:56:02.136Z,9.00
2019-05-07T09:58:36.469Z,9.16
2019-05-07T10:01:02.108Z,9.28
2019-05-07T10:03:32.439Z,9.76
2019-05-07T10:06:02.266Z,9.86
2019-05-07T10:08:32.656Z,9.63
2019-05-07T10:11:02.728Z,10.23
2019-05-07T10:13:42.552Z,10.07
2019-05-07T10:16:12.763Z,10.67
2019-05-07T10:18:42.707Z,11.28
2019-05-07T10:21:12.730Z,10.88
2019-05-07T10:23:41.767Z,10.22
2019-05-07T10:26:12.190Z,10.16
2019-05-07T10:28:42.489Z,10.54
2019-05-07T10:31:11.318Z,11.03
2019-05-07T10:33:39.906Z,10.31
2019-05-07T10:36:09.287Z,10.55
2019-05-07T10:38:37.904Z,10.85
2019-05-07T10:41:06.736Z,10.76
2019-05-07T10:43:35.373Z,10.90
2019-05-07T10:46:14.890Z,10.89
2019-05-07T10:48:45.140Z,10.95
2019-05-07T10:51:13.864Z,10.87
2019-05-07T10:53:42.597Z,11.10
2019-05-07T10:56:11.842Z,10.70
2019-05-07T10:58:41.796Z,10.72
2019-05-07T11:01:12.058Z,10.33
2019-05-07T11:03:40.901Z,10.26
2019-05-07T11:06:09.512Z,10.40
2019-05-07T11:08:38.211Z,10.48
2019-05-07T11:11:06.829Z,10.26
2019-05-07T11:13:35.504Z,10.53
2019-05-07T11:16:05.721Z,10.39
2019-05-07T11:18:36.133Z,11.18
2019-05-07T11:21:04.846Z,11.55
2019-05-07T11:23:33.471Z,11.13
2019-05-07T11:26:02.600Z,11.60
2019-05-07T11:28:32.415Z,10.75
2019-05-07T11:31:02.042Z,10.54
2019-05-07T11:33:32.549Z,11.01
2019-05-07T11:36:02.127Z,11.15
2019-05-07T11:38:33.123Z,11.32
2019-05-07T11:41:02.323Z,11.16
2019-05-07T11:43:32.745Z,11.73
2019-05-07T11:46:05.884Z,11.77
2019-05-07T11:48:36.525Z,11.75
2019-05-07T11:51:22.992Z,11.76
2019-05-07T11:54:12.415Z,11.00
2019-05-07T11:56:42.281Z,10.90
2019-05-07T11:59:13.352Z,11.29
2019-05-07T12:01:47.185Z,11.82
2019-05-07T12:04:13.830Z,12.04
2019-05-07T12:06:42.615Z,11.85
2019-05-07T12:09:12.141Z,11.64
2019-05-07T12:11:42.598Z,12.16
2019-05-07T12:14:12.340Z,11.13
2019-05-07T12:16:42.607Z,11.57
2019-05-07T12:19:13.032Z,12.33
2019-05-07T12:21:42.297Z,12.60
2019-05-07T12:24:12.841Z,12.65
2019-05-07T12:26:42.710Z,12.43
2019-05-07T12:29:11.869Z,12.24
2019-05-07T12:31:57.581Z,12.41
2019-05-07T12:37:18.170Z,12.74
2019-05-07T12:39:46.813Z,12.40
2019-05-07T12:42:15.509Z,12.35
2019-05-07T12:44:45.180Z,12.87
2019-05-07T12:47:13.847Z,12.75
2019-05-07T12:49:42.986Z,12.48
2019-05-07T12:52:16.280Z,12.71
2019-05-07T12:54:52.648Z,12.70
2019-05-07T12:57:21.981Z,13.41
2019-05-07T12:59:52.814Z,12.26
2019-05-07T13:02:40.157Z,12.45
2019-05-07T13:05:07.465Z,12.56
2019-05-07T13:07:37.683Z,12.72
2019-05-07T13:10:08.618Z,12.65
2019-05-07T13:12:37.557Z,12.75
2019-05-07T13:15:20.521Z,12.81
2019-05-07T13:17:38.315Z,13.36
2019-05-07T13:20:07.920Z,12.73
2019-05-07T13:22:36.575Z,12.92
2019-05-07T13:25:07.144Z,12.91
2019-05-07T13:27:35.854Z,12.94
2019-05-07T13:30:06.032Z,12.57
2019-05-07T13:32:35.888Z,12.80
2019-05-07T13:35:06.289Z,12.91
2019-05-07T13:37:41.797Z,12.92
2019-05-07T13:40:28.360Z,12.88
2019-05-07T13:42:58.610Z,12.61
2019-05-07T13:45:37.249Z,12.18
2019-05-07T13:48:13.359Z,12.42
2019-05-07T13:50:42.096Z,12.29
2019-05-07T13:53:12.343Z,12.71
2019-05-07T13:55:42.342Z,12.56
2019-05-07T13:58:14.028Z,12.47
2019-05-07T14:00:59.471Z,13.04
2019-05-07T14:03:28.172Z,13.35
2019-05-07T14:05:56.849Z,13.35
2019-05-07T14:08:27.263Z,13.40
2019-05-07T14:10:55.979Z,13.81
2019-05-07T14:13:24.597Z,13.15
2019-05-07T14:16:06.217Z,13.68
2019-05-07T14:18:39.394Z,13.66
2019-05-07T14:21:08.860Z,14.12
2019-05-07T14:23:37.748Z,13.97
2019-05-07T14:26:06.442Z,13.57
2019-05-07T14:28:35.149Z,13.49
2019-05-07T14:31:03.805Z,13.46
2019-05-07T14:33:54.008Z,13.51
2019-05-07T14:36:42.511Z,13.71
2019-05-07T14:39:10.799Z,13.69
2019-05-07T14:41:39.556Z,13.70
2019-05-07T14:44:18.540Z,13.65
2019-05-07T14:46:51.601Z,13.37
2019-05-07T14:49:17.583Z,13.41
2019-05-07T14:51:46.334Z,13.42
2019-05-07T14:54:18.215Z,13.10
2019-05-07T14:56:45.434Z,13.28
2019-05-07T14:59:14.079Z,13.33
2019-05-07T15:01:43.063Z,13.56
2019-05-07T15:04:12.884Z,13.49
2019-05-07T15:06:41.864Z,13.61
2019-05-07T15:09:12.285Z,13.43
2019-05-07T15:11:42.473Z,13.31
2019-05-07T15:14:12.052Z,13.24
2019-05-07T15:16:42.724Z,12.76
2019-05-07T15:19:12.458Z,12.70
2019-05-07T15:21:42.642Z,12.76
2019-05-07T15:24:12.905Z,12.38
2019-05-07T15:26:42.111Z,12.48
2019-05-07T15:29:12.591Z,12.41
2019-05-07T15:31:42.828Z,12.57
2019-05-07T15:34:12.435Z,12.47
2019-05-07T15:36:42.389Z,12.52
2019-05-07T15:39:13.354Z,12.44
2019-05-07T15:41:42.502Z,12.31
2019-05-07T15:44:11.985Z,12.24
2019-05-07T15:46:42.747Z,12.31
2019-05-07T15:49:12.727Z,12.61
2019-05-07T15:51:41.970Z,12.28
2019-05-07T15:54:12.800Z,12.16
2019-05-07T15:56:41.542Z,12.26
2019-05-07T15:59:12.805Z,12.21
2019-05-07T16:01:42.020Z,12.08
2019-05-07T16:04:21.545Z,12.15
2019-05-07T16:06:42.440Z,11.92
2019-05-07T16:09:12.922Z,11.92
2019-05-07T16:11:43.018Z,11.68
2019-05-07T16:14:14.605Z,11.73
2019-05-07T16:16:45.407Z,11.75
2019-05-07T16:19:15.828Z,11.93
2019-05-07T16:21:44.465Z,11.85
2019-05-07T16:24:13.178Z,11.69
2019-05-07T16:26:42.051Z,11.60
2019-05-07T16:29:13.283Z,11.48
2019-05-07T16:31:43.495Z,11.50
2019-05-07T16:34:12.670Z,11.62
2019-05-07T16:36:42.015Z,11.56
2019-05-07T16:39:12.071Z,11.39
2019-05-07T16:41:42.296Z,11.38
2019-05-07T16:44:12.212Z,11.37
2019-05-07T16:46:42.119Z,11.29
2019-05-07T16:49:12.045Z,11.24
2019-05-07T16:51:44.217Z,11.22
2019-05-07T16:54:12.162Z,11.15
2019-05-07T16:56:42.896Z,11.05
2019-05-07T16:59:13.341Z,11.07
2019-05-07T17:01:42.963Z,10.94
2019-05-07T17:04:12.285Z,10.86
2019-05-07T17:06:42.524Z,10.84
2019-05-07T17:09:13.700Z,10.78
2019-05-07T17:11:43.751Z,10.74
2019-05-07T17:14:13.026Z,10.56
2019-05-07T17:16:41.897Z,10.53
2019-05-07T17:19:13.700Z,10.38
2019-05-07T17:21:43.146Z,10.34
2019-05-07T17:24:12.060Z,10.31
2019-05-07T17:26:42.303Z,10.35
2019-05-07T17:29:12.061Z,10.21
2019-05-07T17:31:42.592Z,9.94
2019-05-07T17:34:11.895Z,9.85
2019-05-07T17:36:42.125Z,9.81
2019-05-07T17:39:12.223Z,9.81
2019-05-07T17:41:43.094Z,9.80
2019-05-07T17:44:13.363Z,9.69
2019-05-07T17:46:42.868Z,9.65
2019-05-07T17:49:12.966Z,9.50
2019-05-07T17:51:43.153Z,9.24
2019-05-07T17:54:13.079Z,9.29
2019-05-07T17:56:42.750Z,9.20
2019-05-07T17:59:12.219Z,9.22
2019-05-07T18:01:45.368Z,9.17
2019-05-07T18:04:14.092Z,9.17
2019-05-07T18:06:42.877Z,9.13
2019-05-07T18:09:12.199Z,9.03
2019-05-07T18:11:42.835Z,9.05
2019-05-07T18:14:11.413Z,9.02
2019-05-07T18:17:01.987Z,8.97
2019-05-07T18:19:33.136Z,8.87
2019-05-07T18:22:02.638Z,8.81
2019-05-07T18:24:32.994Z,8.68
2019-05-07T18:27:02.878Z,8.44
2019-05-07T18:29:33.802Z,8.25
2019-05-07T18:32:03.800Z,8.20
2019-05-07T18:34:32.688Z,8.19
2019-05-07T18:37:02.127Z,8.12
2019-05-07T18:39:32.437Z,7.97
2019-05-07T18:42:02.849Z,7.94
2019-05-07T18:44:31.708Z,7.84
2019-05-07T18:47:02.343Z,7.69
2019-05-07T18:49:30.968Z,7.70
2019-05-07T18:52:03.186Z,7.48
2019-05-07T18:54:31.954Z,7.45
2019-05-07T18:57:02.304Z,7.42
2019-05-07T18:59:32.693Z,7.32
2019-05-07T19:02:02.894Z,7.20
2019-05-07T19:04:33.197Z,7.18
2019-05-07T19:07:02.526Z,7.06
2019-05-07T19:09:32.232Z,7.00
2019-05-07T19:12:02.937Z,6.88
2019-05-07T19:14:33.302Z,6.77
2019-05-07T19:17:03.193Z,6.64
2019-05-07T19:19:32.793Z,6.60
2019-05-07T19:22:02.221Z,6.20
2019-05-07T19:24:42.251Z,6.30
2019-05-07T19:27:03.690Z,6.30
2019-05-07T19:29:32.863Z,6.16
2019-05-07T19:32:03.197Z,6.21
2019-05-07T19:34:32.565Z,6.19
2019-05-07T19:37:02.556Z,6.18
2019-05-07T19:39:32.443Z,6.14
2019-05-07T19:42:02.561Z,6.00
2019-05-07T19:44:33.388Z,5.92
2019-05-07T19:47:02.163Z,5.89
2019-05-07T19:49:32.509Z,5.84
2019-05-07T19:52:01.840Z,5.83
2019-05-07T19:54:32.448Z,5.73
2019-05-07T19:57:02.732Z,5.72
2019-05-07T19:59:32.657Z,5.75
2019-05-07T20:02:03.257Z,5.53
2019-05-07T20:04:32.233Z,5.51
2019-05-07T20:07:02.848Z,5.53
2019-05-07T20:09:33.519Z,5.46
2019-05-07T20:12:02.738Z,5.47
2019-05-07T20:14:33.088Z,5.49
2019-05-07T20:17:02.008Z,5.44
2019-05-07T20:19:32.859Z,5.36
2019-05-07T20:22:02.168Z,5.35
2019-05-07T20:24:33.161Z,5.29
2019-05-07T20:27:03.062Z,5.16
2019-05-07T20:29:34.134Z,5.12
2019-05-07T20:32:02.989Z,5.06
2019-05-07T20:34:33.251Z,5.11
2019-05-07T20:37:04.005Z,4.96
2019-05-07T20:39:33.700Z,4.98
2019-05-07T20:42:03.970Z,4.93
2019-05-07T20:44:32.824Z,4.86
2019-05-07T20:47:01.858Z,4.79
2019-05-07T20:49:32.093Z,4.74
2019-05-07T20:52:01.033Z,4.85
2019-05-07T20:54:46.403Z,4.89
2019-05-07T20:57:16.732Z,4.88
2019-05-07T20:59:45.414Z,4.80
2019-05-07T21:02:14.213Z,4.74
2019-05-07T21:04:42.991Z,4.67
2019-05-07T21:07:12.037Z,4.71
2019-05-07T21:09:42.258Z,4.69
2019-05-07T21:12:12.894Z,4.59
2019-05-07T21:14:41.904Z,4.60
2019-05-07T21:17:11.955Z,4.55
2019-05-07T21:19:42.843Z,4.56
2019-05-07T21:22:13.055Z,4.38
2019-05-07T21:24:42.297Z,4.43
2019-05-07T21:27:12.183Z,4.44
2019-05-07T21:29:42.318Z,4.33
2019-05-07T21:32:12.379Z,4.34
2019-05-07T21:34:42.152Z,4.24
2019-05-07T21:37:12.584Z,4.15
2019-05-07T21:39:42.417Z,4.00
2019-05-07T21:42:13.889Z,4.06
2019-05-07T21:44:43.002Z,3.85
2019-05-07T21:47:12.583Z,4.03
2019-05-07T21:49:43.059Z,3.96
2019-05-07T21:52:12.783Z,3.95
2019-05-07T21:54:48.830Z,3.86
2019-05-07T21:57:19.075Z,3.82
2019-05-07T21:59:49.278Z,3.88
2019-05-07T22:02:21.918Z,3.85
2019-05-07T22:04:49.930Z,3.91
2019-05-07T22:07:18.727Z,3.77
2019-05-07T22:09:47.347Z,3.64
2019-05-07T22:12:16.047Z,3.57
2019-05-07T22:14:44.710Z,3.54
2019-05-07T22:17:13.378Z,3.62
2019-05-07T22:19:42.693Z,3.54
2019-05-07T22:22:12.385Z,3.53
2019-05-07T22:24:42.568Z,3.60
2019-05-07T22:27:12.910Z,3.52
2019-05-07T22:29:42.055Z,3.38
2019-05-07T22:32:29.095Z,3.33
2019-05-07T22:35:02.871Z,3.30
2019-05-07T22:37:32.419Z,3.34
2019-05-07T22:40:02.739Z,3.39
2019-05-07T22:42:33.266Z,3.38
2019-05-07T22:45:02.768Z,2.87
2019-05-07T22:47:32.627Z,2.99
2019-05-07T22:50:03.394Z,2.92
2019-05-07T22:52:32.650Z,2.90
2019-05-07T22:55:01.585Z,3.02
2019-05-07T22:57:42.007Z,2.94
2019-05-07T23:00:12.956Z,2.94
2019-05-07T23:02:42.787Z,2.96
2019-05-07T23:05:13.181Z,2.77
2019-05-07T23:07:43.886Z,2.83
2019-05-07T23:10:12.282Z,2.86
2019-05-07T23:12:40.956Z,2.86
2019-05-07T23:15:11.829Z,2.85
2019-05-07T23:17:40.058Z,2.89
2019-05-07T23:20:08.934Z,2.88
2019-05-07T23:22:37.576Z,2.86
2019-05-07T23:25:08.022Z,2.78
2019-05-07T23:27:36.694Z,2.55
2019-05-07T23:30:06.519Z,2.49
2019-05-07T23:32:35.286Z,2.57
2019-05-07T23:35:04.009Z,2.55
2019-05-07T23:37:33.230Z,2.64
2019-05-07T23:40:19.022Z,2.63
2019-05-07T23:42:49.387Z,2.48
2019-05-07T23:45:18.061Z,2.52
2019-05-07T23:47:46.771Z,2.53
2019-05-07T23:50:15.402Z,2.49
2019-05-07T23:52:44.208Z,2.52
2019-05-07T23:55:12.856Z,2.43
2019-05-07T23:57:43.070Z,2.43
